Time;durP1;ratioP1;P1;durP2;ratioP2;P2;SDS_P1;SDS_P2;PMS_P1;PMS_P2;Temp;Humidity;BMP_temperature;BMP_pressure;BME280_temperature;BME280_humidity;BME280_pressure;Samples;Min_cycle;Max_cycle;Signal;HPM_P1;HPM_P2
2020/12/16 00:02:18;;;;;;;22.17;9.57;;;3.40;99.90;;;;;;4981172;28;20220;-70
2020/12/16 00:04:45;;;;;;;18.83;9.03;;;3.40;99.90;;;;;;4982235;28;20387;-70
2020/12/16 00:07:11;;;;;;;22.23;9.70;;;3.40;99.90;;;;;;4948779;29;20212;-71
2020/12/16 00:09:38;;;;;;;21.73;9.47;;;3.40;99.90;;;;;;4947078;29;20206;-71
2020/12/16 00:12:05;;;;;;;23.20;9.00;;;3.40;99.90;;;;;;4951799;28;20545;-70
2020/12/16 00:14:31;;;;;;;20.47;8.87;;;3.50;99.90;;;;;;4929483;29;20207;-70
2020/12/16 00:16:59;;;;;;;20.90;9.43;;;3.40;99.90;;;;;;4911049;29;20206;-71
2020/12/16 00:19:25;;;;;;;20.30;9.33;;;3.50;99.90;;;;;;4910851;29;20681;-70
2020/12/16 00:21:52;;;;;;;19.10;8.50;;;3.50;99.90;;;;;;4927880;29;20240;-70
2020/12/16 00:24:18;;;;;;;21.50;8.43;;;3.50;99.90;;;;;;4928836;29;20237;-70
2020/12/16 00:26:45;;;;;;;20.03;9.13;;;3.50;99.90;;;;;;4946120;29;20628;-70
2020/12/16 00:29:12;;;;;;;21.67;9.87;;;3.50;99.90;;;;;;4931300;29;20222;-69
2020/12/16 00:31:39;;;;;;;19.87;9.70;;;3.50;99.90;;;;;;4931678;29;20198;-70
2020/12/16 00:34:07;;;;;;;21.40;9.60;;;3.50;99.90;;;;;;4935365;29;20205;-69
2020/12/16 00:36:38;;;;;;;20.33;9.20;;;3.50;99.90;;;;;;4950474;29;20688;-69
2020/12/16 00:39:05;;;;;;;17.77;8.60;;;3.50;99.90;;;;;;4949647;28;20217;-70
2020/12/16 00:41:33;;;;;;;17.30;9.30;;;3.50;99.90;;;;;;4930487;29;20273;-69
2020/12/16 00:43:59;;;;;;;14.87;8.43;;;3.50;99.90;;;;;;4929032;28;20255;-69
2020/12/16 00:46:26;;;;;;;17.90;8.70;;;3.50;99.90;;;;;;4970014;28;20212;-70
2020/12/16 00:48:53;;;;;;;17.77;9.40;;;3.50;99.90;;;;;;4948713;28;20201;-69
2020/12/16 00:51:20;;;;;;;16.17;8.07;;;3.50;99.90;;;;;;4969517;28;20540;-69
2020/12/16 00:53:48;;;;;;;16.77;8.37;;;3.40;99.90;;;;;;4963716;28;20292;-69
2020/12/16 00:56:15;;;;;;;16.57;8.33;;;3.40;99.90;;;;;;5012614;28;20226;-69
2020/12/16 00:58:42;;;;;;;16.10;8.63;;;3.40;99.90;;;;;;4986688;28;20207;-68
2020/12/16 01:01:10;;;;;;;15.10;7.63;;;3.40;99.90;;;;;;5006313;28;20804;-69
2020/12/16 01:03:37;;;;;;;15.00;7.77;;;3.40;99.90;;;;;;5008426;28;20261;-69
2020/12/16 01:06:04;;;;;;;20.27;8.43;;;3.40;99.90;;;;;;4997885;28;20216;-69
2020/12/16 01:08:33;;;;;;;14.93;8.00;;;3.40;99.90;;;;;;4985137;28;20571;-69
2020/12/16 01:11:00;;;;;;;16.80;8.27;;;3.40;99.90;;;;;;4982873;28;20256;-70
2020/12/16 01:13:31;;;;;;;15.87;8.17;;;3.40;99.90;;;;;;4911721;29;20206;-69
2020/12/16 01:15:57;;;;;;;16.07;7.70;;;3.30;99.90;;;;;;4912337;29;20242;-70
2020/12/16 01:18:24;;;;;;;17.20;8.10;;;3.30;99.90;;;;;;4911678;29;20214;-69
2020/12/16 01:20:54;;;;;;;17.90;9.10;;;3.20;99.90;;;;;;4928937;29;20712;-70
2020/12/16 01:23:40;;;;;;;15.27;7.60;;;3.20;99.90;;;;;;4930599;29;20217;-70
2020/12/16 01:26:06;;;;;;;15.93;8.20;;;3.20;99.90;;;;;;4916616;28;20217;-70
2020/12/16 01:28:36;;;;;;;15.00;8.03;;;3.20;99.90;;;;;;4962034;28;20268;-70
2020/12/16 01:31:07;;;;;;;17.30;8.93;;;3.20;99.90;;;;;;4948840;28;20209;-70
2020/12/16 01:33:34;;;;;;;16.23;8.37;;;3.10;99.90;;;;;;4949770;29;20213;-69
2020/12/16 01:36:10;;;;;;;18.07;8.27;;;3.10;99.90;;;;;;4945145;29;20212;-69
2020/12/16 01:38:39;;;;;;;15.53;8.20;;;3.10;99.90;;;;;;4926450;29;20245;-69
2020/12/16 01:41:07;;;;;;;17.20;8.03;;;3.10;99.90;;;;;;4929210;29;20596;-69
2020/12/16 01:43:39;;;;;;;18.33;8.20;;;3.10;99.90;;;;;;4927379;29;21054;-69
2020/12/16 01:46:12;;;;;;;16.67;7.97;;;3.10;99.90;;;;;;4914828;29;20232;-69
2020/12/16 01:48:40;;;;;;;17.17;8.23;;;3.10;99.90;;;;;;4933647;29;20295;-69
2020/12/16 01:51:10;;;;;;;17.33;7.83;;;3.10;99.90;;;;;;4970397;28;20641;-69
2020/12/16 01:53:37;;;;;;;15.20;7.80;;;3.20;99.90;;;;;;4971865;28;20327;-69
2020/12/16 01:56:05;;;;;;;15.17;7.00;;;3.20;99.90;;;;;;4968526;28;20201;-69
2020/12/16 01:58:50;;;;;;;17.27;7.83;;;3.20;99.90;;;;;;4934601;29;20717;-69
2020/12/16 02:01:22;;;;;;;13.97;7.13;;;3.30;99.90;;;;;;4925367;29;20237;-69
2020/12/16 02:03:54;;;;;;;13.83;7.23;;;3.30;99.90;;;;;;4912480;29;20267;-69
2020/12/16 02:06:33;;;;;;;12.47;6.87;;;3.30;99.90;;;;;;4926723;29;20218;-69
2020/12/16 02:09:04;;;;;;;13.77;7.00;;;3.30;99.90;;;;;;4905361;29;20203;-69
2020/12/16 02:11:35;;;;;;;11.97;6.63;;;3.30;99.90;;;;;;4893591;29;20206;-69
2020/12/16 02:14:10;;;;;;;12.00;6.27;;;3.30;99.90;;;;;;4910596;29;20293;-69
2020/12/16 02:16:39;;;;;;;10.77;6.07;;;3.30;99.90;;;;;;4897218;29;20230;-69
2020/12/16 02:19:08;;;;;;;8.33;5.43;;;3.30;99.90;;;;;;4852942;29;20208;-69
2020/12/16 02:21:44;;;;;;;12.07;5.90;;;3.40;99.90;;;;;;4858980;29;20246;-69
2020/12/16 02:24:12;;;;;;;8.67;5.30;;;3.40;99.90;;;;;;4858158;29;20211;-69
2020/12/16 02:26:42;;;;;;;11.23;6.30;;;3.40;99.90;;;;;;4861508;29;20459;-69
2020/12/16 02:29:10;;;;;;;10.53;5.77;;;3.30;99.90;;;;;;4876828;29;20238;-69
2020/12/16 02:31:42;;;;;;;9.60;5.57;;;3.30;99.90;;;;;;4907867;29;20697;-69
2020/12/16 02:34:12;;;;;;;14.77;6.10;;;3.30;99.90;;;;;;4897477;29;20321;-69
2020/12/16 02:36:42;;;;;;;10.67;5.77;;;3.40;99.90;;;;;;4935925;29;20218;-69
2020/12/16 02:39:15;;;;;;;9.13;5.30;;;3.30;99.90;;;;;;4974721;28;20218;-69
2020/12/16 02:42:08;;;;;;;10.63;6.17;;;3.40;99.90;;;;;;4953187;28;20319;-69
2020/12/16 02:44:35;;;;;;;9.77;5.60;;;3.40;99.90;;;;;;4960116;28;20295;-69
2020/12/16 02:47:20;;;;;;;12.10;6.43;;;3.40;99.90;;;;;;4972807;28;20219;-69
2020/12/16 02:49:48;;;;;;;11.23;5.80;;;3.40;99.90;;;;;;4936192;29;20210;-69
2020/12/16 02:52:15;;;;;;;12.80;5.73;;;3.50;99.90;;;;;;4943027;28;20240;-69
2020/12/16 02:54:42;;;;;;;9.37;4.97;;;3.50;99.90;;;;;;4966821;28;20564;-69
2020/12/16 02:57:41;;;;;;;10.63;5.03;;;3.50;99.90;;;;;;4913339;29;20590;-69
2020/12/16 03:00:08;;;;;;;8.47;4.57;;;3.50;99.90;;;;;;4903855;29;20226;-70
2020/12/16 03:02:53;;;;;;;11.83;4.90;;;3.60;99.90;;;;;;4894782;29;20582;-70
2020/12/16 03:05:44;;;;;;;11.13;5.67;;;3.60;99.90;;;;;;4905912;29;20641;-69
2020/12/16 03:08:19;;;;;;;9.70;5.30;;;3.60;99.90;;;;;;4910130;29;20793;-69
2020/12/16 03:10:54;;;;;;;8.37;4.57;;;3.60;99.90;;;;;;4908309;29;20202;-69
2020/12/16 03:13:22;;;;;;;9.20;4.93;;;3.60;99.90;;;;;;4883428;29;20223;-69
2020/12/16 03:15:49;;;;;;;8.37;4.60;;;3.60;99.90;;;;;;4913234;29;20625;-69
2020/12/16 03:18:16;;;;;;;9.33;4.80;;;3.60;99.90;;;;;;4931416;29;20685;-69
2020/12/16 03:20:44;;;;;;;8.57;4.53;;;3.70;99.90;;;;;;4947290;28;20243;-70
2020/12/16 03:23:12;;;;;;;7.90;4.97;;;3.70;99.90;;;;;;4952787;28;20286;-70
2020/12/16 03:26:04;;;;;;;11.17;5.07;;;3.70;99.90;;;;;;4944061;29;20216;-70
2020/12/16 03:28:54;;;;;;;9.90;5.40;;;3.80;99.90;;;;;;4950090;29;20682;-70
2020/12/16 03:31:41;;;;;;;9.43;4.90;;;3.80;99.90;;;;;;4928598;29;20198;-70
2020/12/16 03:34:30;;;;;;;7.40;4.43;;;3.80;99.90;;;;;;4943654;29;20225;-69
2020/12/16 03:37:04;;;;;;;10.30;4.87;;;3.80;99.90;;;;;;4951614;29;20216;-70
2020/12/16 03:39:32;;;;;;;9.17;5.60;;;3.80;99.90;;;;;;4935125;29;20235;-70
2020/12/16 03:41:59;;;;;;;11.37;5.23;;;3.80;99.90;;;;;;4932380;29;20269;-70
2020/12/16 03:44:27;;;;;;;9.30;4.90;;;3.80;99.90;;;;;;4949582;29;20213;-70
2020/12/16 03:46:56;;;;;;;11.00;5.13;;;3.80;99.90;;;;;;4934753;29;20205;-70
2020/12/16 03:49:25;;;;;;;10.67;5.23;;;3.90;99.90;;;;;;4951203;29;20228;-70
2020/12/16 03:51:53;;;;;;;11.47;4.77;;;3.90;99.90;;;;;;4947561;29;20335;-70
2020/12/16 03:54:26;;;;;;;8.50;4.73;;;3.90;99.90;;;;;;4898851;29;20301;-70
2020/12/16 03:57:18;;;;;;;8.77;4.80;;;3.90;99.90;;;;;;4876698;29;20236;-70
2020/12/16 04:00:10;;;;;;;13.33;5.50;;;3.90;99.90;;;;;;4873288;29;20219;-69
2020/12/16 04:02:42;;;;;;;10.27;4.87;;;3.90;99.90;;;;;;4903512;28;20208;-69
2020/12/16 04:05:26;;;;;;;9.07;4.77;;;3.90;99.90;;;;;;4920342;29;20218;-69
2020/12/16 04:07:52;;;;;;;8.30;4.77;;;3.90;99.90;;;;;;4913328;29;20222;-69
2020/12/16 04:10:45;;;;;;;9.27;5.00;;;3.90;99.90;;;;;;4927375;29;20216;-69
2020/12/16 04:13:14;;;;;;;7.80;4.50;;;3.90;99.90;;;;;;4912876;29;20214;-69
2020/12/16 04:15:44;;;;;;;8.23;4.23;;;4.00;99.90;;;;;;4877973;29;20260;-69
2020/12/16 04:18:11;;;;;;;9.13;4.57;;;3.90;99.90;;;;;;4886780;29;20321;-69
2020/12/16 04:20:38;;;;;;;8.03;4.50;;;4.00;99.90;;;;;;4912424;29;20297;-69
2020/12/16 04:23:06;;;;;;;8.57;4.57;;;4.00;99.90;;;;;;4913390;29;20211;-70
2020/12/16 04:25:34;;;;;;;9.43;5.17;;;4.00;99.90;;;;;;4911799;29;20720;-69
2020/12/16 04:28:03;;;;;;;8.80;4.67;;;4.00;99.90;;;;;;4912219;29;20345;-69
2020/12/16 04:30:30;;;;;;;9.17;5.00;;;4.00;99.90;;;;;;4911585;29;20217;-70
2020/12/16 04:32:59;;;;;;;10.37;5.47;;;4.00;99.90;;;;;;4895080;29;20219;-69
2020/12/16 04:35:28;;;;;;;8.40;5.40;;;4.00;99.90;;;;;;4893103;29;20211;-69
2020/12/16 04:37:56;;;;;;;9.10;5.20;;;3.90;99.90;;;;;;4893966;29;20211;-69
2020/12/16 04:40:24;;;;;;;11.60;5.07;;;3.90;99.90;;;;;;4892803;29;20234;-70
2020/12/16 04:43:04;;;;;;;15.10;6.13;;;3.90;99.90;;;;;;4881787;29;20226;-69
2020/12/16 04:45:32;;;;;;;10.17;5.80;;;3.90;99.90;;;;;;4899082;29;20238;-69
2020/12/16 04:48:01;;;;;;;8.17;5.07;;;3.80;99.90;;;;;;4896059;29;20803;-69
2020/12/16 04:50:27;;;;;;;8.83;5.10;;;3.80;99.90;;;;;;4893880;29;20207;-69
2020/12/16 04:53:03;;;;;;;10.50;5.17;;;3.70;99.90;;;;;;4893654;29;20205;-69
2020/12/16 04:55:46;;;;;;;7.33;4.70;;;3.70;99.90;;;;;;4910034;29;20206;-69
2020/12/16 04:58:23;;;;;;;7.27;4.50;;;3.70;99.90;;;;;;4900723;29;20665;-69
2020/12/16 05:00:50;;;;;;;9.33;4.97;;;3.60;99.90;;;;;;4911888;29;20717;-70
2020/12/16 05:03:41;;;;;;;10.57;4.80;;;3.50;99.90;;;;;;4923259;28;20235;-70
2020/12/16 05:06:39;;;;;;;7.90;4.20;;;3.50;99.90;;;;;;4979415;28;20209;-70
2020/12/16 05:09:08;;;;;;;8.63;4.80;;;3.40;99.90;;;;;;4999104;28;20217;-70
2020/12/16 05:11:40;;;;;;;8.20;4.60;;;3.40;99.90;;;;;;5008367;28;20199;-70
2020/12/16 05:14:12;;;;;;;7.70;4.37;;;3.30;99.90;;;;;;4994369;28;20570;-69
2020/12/16 05:17:03;;;;;;;7.57;4.60;;;3.20;99.90;;;;;;5008268;28;20261;-69
2020/12/16 05:19:32;;;;;;;7.17;4.40;;;3.20;99.90;;;;;;4950133;29;20545;-69
2020/12/16 05:22:16;;;;;;;8.43;4.87;;;3.10;99.90;;;;;;4950277;29;20229;-69
2020/12/16 05:24:44;;;;;;;9.67;5.47;;;3.10;99.90;;;;;;4958485;28;20323;-69
2020/12/16 05:27:16;;;;;;;9.57;5.27;;;3.00;99.90;;;;;;4969327;28;20208;-70
2020/12/16 05:29:42;;;;;;;7.80;4.97;;;3.00;99.90;;;;;;4967514;28;20663;-70
2020/12/16 05:32:17;;;;;;;9.93;5.30;;;2.90;99.90;;;;;;4994985;28;20607;-70
2020/12/16 05:34:44;;;;;;;11.07;6.03;;;2.90;99.90;;;;;;5016767;28;20239;-69
2020/12/16 05:37:38;;;;;;;12.60;6.20;;;2.90;99.90;;;;;;5008393;28;20260;-70
2020/12/16 05:40:08;;;;;;;15.93;6.67;;;2.90;99.90;;;;;;5002581;28;20318;-70
2020/12/16 05:42:34;;;;;;;13.63;5.93;;;2.90;99.90;;;;;;4988648;28;20211;-70
2020/12/16 05:45:12;;;;;;;17.37;6.47;;;2.90;99.90;;;;;;5000125;28;20215;-70
2020/12/16 05:47:41;;;;;;;15.47;6.10;;;2.90;99.90;;;;;;5016905;28;20649;-70
2020/12/16 05:50:17;;;;;;;18.67;6.00;;;3.00;99.90;;;;;;5042940;28;20204;-70
2020/12/16 05:52:45;;;;;;;18.33;7.20;;;3.00;99.90;;;;;;5087290;28;20200;-70
2020/12/16 05:55:12;;;;;;;18.87;7.07;;;3.00;99.90;;;;;;5077786;28;20200;-70
2020/12/16 05:57:38;;;;;;;19.33;7.07;;;3.00;99.90;;;;;;5067438;28;20200;-70
2020/12/16 06:00:08;;;;;;;18.37;7.00;;;3.00;99.90;;;;;;5066307;28;20225;-70
2020/12/16 06:02:42;;;;;;;21.20;7.60;;;3.00;99.90;;;;;;5067645;28;20290;-69
2020/12/16 06:05:10;;;;;;;19.33;7.50;;;3.00;99.90;;;;;;5067823;28;20193;-68
2020/12/16 06:07:40;;;;;;;27.23;7.00;;;3.00;99.90;;;;;;5061837;28;20252;-69
2020/12/16 06:10:07;;;;;;;22.97;7.67;;;3.00;99.90;;;;;;5058413;28;20296;-68
2020/12/16 06:12:39;;;;;;;19.43;7.40;;;2.90;99.90;;;;;;5065036;28;20215;-69
2020/12/16 06:15:10;;;;;;;18.80;6.90;;;3.00;99.90;;;;;;5048165;28;20312;-69
2020/12/16 06:17:42;;;;;;;21.97;7.37;;;2.90;99.90;;;;;;5061025;28;20247;-68
2020/12/16 06:20:14;;;;;;;17.83;7.10;;;3.00;99.90;;;;;;5058753;28;20304;-69
2020/12/16 06:22:43;;;;;;;15.63;6.63;;;2.90;99.90;;;;;;5067975;28;20207;-69
2020/12/16 06:25:12;;;;;;;15.73;5.90;;;2.90;99.90;;;;;;5082819;28;20200;-69
2020/12/16 06:27:44;;;;;;;19.97;6.50;;;2.90;99.90;;;;;;5079465;28;20680;-69
2020/12/16 06:30:16;;;;;;;18.43;7.43;;;2.90;99.90;;;;;;5082904;28;20201;-69
2020/12/16 06:32:47;;;;;;;17.10;6.47;;;2.90;99.90;;;;;;5046460;28;20324;-69
2020/12/16 06:35:18;;;;;;;15.13;6.50;;;2.90;99.90;;;;;;5007295;28;20709;-69
2020/12/16 06:37:47;;;;;;;16.50;5.40;;;2.90;99.90;;;;;;5007639;28;20849;-69
2020/12/16 06:40:44;;;;;;;12.77;5.77;;;2.90;99.90;;;;;;5006860;28;20262;-69
2020/12/16 06:43:45;;;;;;;11.70;5.37;;;2.90;99.90;;;;;;5006874;28;20233;-69
2020/12/16 06:46:40;;;;;;;11.00;5.23;;;2.90;99.90;;;;;;4929689;29;20793;-69
2020/12/16 06:49:09;;;;;;;10.83;4.93;;;2.80;99.90;;;;;;4929763;29;20202;-69
2020/12/16 06:51:43;;;;;;;9.53;4.97;;;2.80;99.90;;;;;;4929703;29;20209;-69
2020/12/16 06:54:12;;;;;;;10.00;4.77;;;2.80;99.90;;;;;;4929699;29;20276;-69
2020/12/16 06:56:39;;;;;;;11.07;5.17;;;2.80;99.90;;;;;;4908931;29;20352;-69
2020/12/16 06:59:06;;;;;;;12.40;5.20;;;2.80;99.90;;;;;;4907393;29;20669;-70
2020/12/16 07:01:35;;;;;;;9.77;4.67;;;2.80;99.90;;;;;;4933233;29;20266;-69
2020/12/16 07:04:02;;;;;;;10.10;4.47;;;2.90;99.90;;;;;;4932962;29;20213;-69
2020/12/16 07:06:40;;;;;;;11.53;5.07;;;2.80;99.90;;;;;;4967101;28;20216;-69
2020/12/16 07:09:18;;;;;;;11.20;4.80;;;2.90;99.90;;;;;;4934146;28;20288;-69
2020/12/16 07:11:46;;;;;;;12.63;5.57;;;2.90;99.90;;;;;;4971227;28;20204;-69
2020/12/16 07:14:15;;;;;;;15.77;6.40;;;3.00;99.90;;;;;;4968472;28;20208;-69
2020/12/16 07:16:42;;;;;;;18.27;6.73;;;3.00;99.90;;;;;;4985445;28;20242;-70
2020/12/16 07:19:09;;;;;;;21.30;7.63;;;3.00;99.90;;;;;;5009663;28;20258;-69
2020/12/16 07:21:38;;;;;;;25.40;8.43;;;3.00;99.90;;;;;;5010428;28;20234;-68
2020/12/16 07:24:07;;;;;;;22.00;7.90;;;3.10;99.90;;;;;;5010337;28;20578;-69
2020/12/16 07:26:36;;;;;;;19.10;6.70;;;3.10;99.90;;;;;;4990435;28;20497;-68
2020/12/16 07:29:18;;;;;;;20.70;8.00;;;3.20;99.90;;;;;;4988347;28;20238;-68
2020/12/16 07:31:57;;;;;;;22.00;7.90;;;3.20;99.90;;;;;;4973361;28;20219;-68
2020/12/16 07:34:23;;;;;;;20.40;7.70;;;3.30;99.90;;;;;;4968777;28;20320;-68
2020/12/16 07:36:54;;;;;;;27.57;8.63;;;3.30;99.90;;;;;;4966839;28;20600;-68
2020/12/16 07:39:21;;;;;;;24.37;8.77;;;3.30;99.90;;;;;;4963377;28;20211;-68
2020/12/16 07:41:51;;;;;;;21.87;7.73;;;3.40;99.90;;;;;;5011685;28;20242;-68
2020/12/16 07:44:17;;;;;;;16.53;7.73;;;3.50;99.90;;;;;;4990261;28;20203;-69
2020/12/16 07:46:44;;;;;;;21.57;8.70;;;3.50;99.90;;;;;;5009610;28;20217;-69
2020/12/16 07:49:12;;;;;;;28.17;10.17;;;3.60;99.90;;;;;;5029331;28;20325;-69
2020/12/16 07:51:39;;;;;;;26.07;9.13;;;3.60;99.90;;;;;;5027654;28;20640;-69
2020/12/16 07:54:06;;;;;;;27.10;9.90;;;3.70;99.90;;;;;;4990936;28;20795;-69
2020/12/16 07:56:32;;;;;;;27.97;9.57;;;3.70;99.90;;;;;;4990409;28;20219;-69
2020/12/16 07:59:10;;;;;;;23.83;8.30;;;3.70;99.90;;;;;;5007109;28;20203;-69
2020/12/16 08:01:37;;;;;;;20.63;7.73;;;3.80;99.90;;;;;;5004612;28;20238;-69
2020/12/16 08:04:04;;;;;;;16.30;7.20;;;3.80;99.90;;;;;;4980182;28;20214;-69
2020/12/16 08:06:31;;;;;;;15.30;6.83;;;3.90;99.90;;;;;;4989362;28;20348;-69
2020/12/16 08:08:57;;;;;;;15.63;6.83;;;3.90;99.90;;;;;;4988383;28;20204;-69
2020/12/16 08:11:25;;;;;;;14.97;5.93;;;4.00;99.90;;;;;;4989355;28;20208;-69
2020/12/16 08:13:53;;;;;;;10.57;5.00;;;4.00;99.90;;;;;;4980893;28;20211;-69
2020/12/16 08:16:20;;;;;;;12.20;5.17;;;4.10;99.90;;;;;;5001202;28;20230;-69
2020/12/16 08:18:49;;;;;;;16.27;5.97;;;4.00;99.90;;;;;;5008214;28;20673;-68
2020/12/16 08:21:20;;;;;;;12.13;5.37;;;4.20;99.90;;;;;;5008917;28;20629;-69
2020/12/16 08:23:47;;;;;;;17.67;6.90;;;4.20;99.90;;;;;;5008161;28;20203;-69
2020/12/16 08:26:18;;;;;;;16.30;7.13;;;4.20;99.90;;;;;;5007809;28;20202;-69
2020/12/16 08:28:48;;;;;;;13.23;6.63;;;4.20;99.90;;;;;;5011752;28;20207;-68
2020/12/16 08:31:18;;;;;;;15.87;5.90;;;4.30;99.90;;;;;;5010050;28;20412;-69
2020/12/16 08:33:48;;;;;;;13.80;5.80;;;4.30;99.90;;;;;;5007942;28;20345;-68
2020/12/16 08:36:21;;;;;;;12.50;5.20;;;4.30;99.90;;;;;;5016837;28;20289;-68
2020/12/16 08:38:50;;;;;;;13.30;6.00;;;4.30;99.90;;;;;;5047992;28;20691;-69
2020/12/16 08:41:24;;;;;;;13.87;5.90;;;4.40;99.90;;;;;;5033197;28;20301;-69
2020/12/16 08:43:52;;;;;;;12.37;5.50;;;4.40;99.90;;;;;;5027253;28;20449;-69
2020/12/16 08:46:23;;;;;;;14.67;5.93;;;4.40;99.90;;;;;;5034052;28;21329;-70
2020/12/16 08:48:52;;;;;;;15.70;6.77;;;4.40;99.90;;;;;;5037994;28;20210;-70
2020/12/16 08:51:21;;;;;;;16.23;6.77;;;4.40;99.90;;;;;;5023450;28;20252;-70
2020/12/16 08:53:54;;;;;;;16.43;6.50;;;4.40;99.90;;;;;;5007602;28;20200;-70
2020/12/16 08:56:29;;;;;;;14.57;5.90;;;4.40;99.90;;;;;;4961977;28;20207;-70
2020/12/16 08:59:04;;;;;;;15.57;6.57;;;4.50;99.90;;;;;;4962706;28;20845;-70
2020/12/16 09:01:31;;;;;;;19.63;7.17;;;4.50;99.90;;;;;;4960164;28;20235;-69
2020/12/16 09:03:58;;;;;;;16.00;6.93;;;4.60;99.90;;;;;;4960239;28;20692;-70
2020/12/16 09:06:25;;;;;;;19.20;7.37;;;4.80;99.90;;;;;;4963833;28;20276;-69
2020/12/16 09:08:52;;;;;;;20.43;7.83;;;5.10;99.90;;;;;;4962091;28;20730;-70
2020/12/16 09:11:19;;;;;;;15.97;7.00;;;5.30;99.90;;;;;;4982879;28;20207;-71
2020/12/16 09:13:46;;;;;;;16.63;6.90;;;5.50;99.90;;;;;;4977960;28;20211;-70
2020/12/16 09:16:20;;;;;;;18.53;8.03;;;5.70;99.90;;;;;;4965319;28;20237;-70
2020/12/16 09:18:47;;;;;;;15.27;6.83;;;5.80;99.90;;;;;;4966434;28;20218;-70
2020/12/16 09:21:17;;;;;;;17.40;7.60;;;5.90;99.90;;;;;;4968620;28;20788;-71
2020/12/16 09:23:44;;;;;;;23.47;8.77;;;6.00;99.90;;;;;;4979009;28;20220;-70
2020/12/16 09:26:11;;;;;;;19.17;8.17;;;6.00;99.90;;;;;;5003351;28;20220;-71
2020/12/16 09:28:39;;;;;;;19.53;6.97;;;6.00;99.90;;;;;;5001490;28;20916;-71
2020/12/16 09:31:14;;;;;;;19.00;7.53;;;6.00;99.90;;;;;;5002044;28;20211;-70
2020/12/16 09:33:41;;;;;;;20.00;7.13;;;5.90;99.90;;;;;;5021076;28;20212;-71
2020/12/16 09:36:08;;;;;;;22.50;7.17;;;5.80;99.90;;;;;;5047476;28;20241;-71
2020/12/16 09:38:35;;;;;;;17.67;6.97;;;5.70;99.90;;;;;;5046239;28;20444;-71
2020/12/16 09:41:02;;;;;;;20.00;7.37;;;5.70;99.90;;;;;;5047606;28;20672;-71
2020/12/16 09:43:41;;;;;;;18.33;7.33;;;5.70;99.90;;;;;;5040916;28;20306;-70
2020/12/16 09:46:22;;;;;;;21.13;7.63;;;5.60;99.90;;;;;;5042548;28;20637;-70
2020/12/16 09:48:51;;;;;;;22.10;7.77;;;5.60;99.90;;;;;;5036785;28;20283;-71
2020/12/16 09:51:36;;;;;;;17.60;7.63;;;5.60;99.90;;;;;;5040893;28;20215;-70
2020/12/16 09:54:03;;;;;;;20.00;8.07;;;5.60;99.90;;;;;;5060996;28;20683;-70
2020/12/16 09:56:30;;;;;;;27.08;11.13;;;5.60;99.90;;;;;;5032273;28;20470;-71
2020/12/16 09:59:02;;;;;;;27.13;10.37;;;5.60;99.90;;;;;;5002005;28;20202;-70
2020/12/16 10:01:31;;;;;;;29.23;11.80;;;5.60;99.90;;;;;;5003228;28;20532;-71
2020/12/16 10:03:59;;;;;;;25.13;9.27;;;5.80;99.90;;;;;;5006596;28;20206;-70
2020/12/16 10:06:27;;;;;;;24.30;9.50;;;5.80;99.90;;;;;;5004589;28;20328;-71
2020/12/16 10:08:54;;;;;;;17.33;8.70;;;5.90;99.90;;;;;;4970714;28;20218;-70
2020/12/16 10:11:21;;;;;;;18.80;8.07;;;6.00;99.90;;;;;;5003220;28;20293;-71
2020/12/16 10:13:48;;;;;;;16.10;7.53;;;6.00;99.90;;;;;;5001159;28;20208;-70
2020/12/16 10:16:14;;;;;;;17.30;7.77;;;6.00;99.90;;;;;;5001054;28;20232;-71
2020/12/16 10:18:41;;;;;;;20.07;7.80;;;6.00;99.90;;;;;;5001452;28;20274;-71
2020/12/16 10:21:08;;;;;;;15.53;7.20;;;6.00;99.90;;;;;;5002792;28;20210;-70
2020/12/16 10:23:34;;;;;;;19.03;7.53;;;6.00;99.90;;;;;;5018155;28;20635;-70
2020/12/16 10:26:01;;;;;;;17.80;7.10;;;6.10;99.90;;;;;;5039937;28;20242;-69
2020/12/16 10:28:29;;;;;;;19.23;7.77;;;6.10;99.90;;;;;;5059990;28;20212;-70
2020/12/16 10:30:58;;;;;;;25.50;10.10;;;6.20;99.90;;;;;;5062492;28;20198;-70
2020/12/16 10:33:24;;;;;;;28.83;10.77;;;6.20;99.90;;;;;;5081558;28;20230;-70
2020/12/16 10:35:51;;;;;;;20.43;9.03;;;6.30;99.90;;;;;;5085912;28;20205;-70
2020/12/16 10:38:18;;;;;;;19.20;8.33;;;6.40;99.90;;;;;;5065134;28;20236;-69
2020/12/16 10:40:44;;;;;;;20.53;8.40;;;6.50;99.90;;;;;;5065729;28;20359;-69
2020/12/16 10:43:11;;;;;;;19.73;7.97;;;6.50;99.90;;;;;;5062609;28;20214;-70
2020/12/16 10:45:38;;;;;;;19.00;8.17;;;6.50;99.90;;;;;;5042273;28;20299;-70
2020/12/16 10:48:08;;;;;;;20.27;7.97;;;6.60;99.90;;;;;;5047265;28;20208;-70
2020/12/16 10:50:39;;;;;;;19.83;8.47;;;6.50;99.90;;;;;;5041373;28;20217;-73
2020/12/16 10:53:06;;;;;;;19.23;8.03;;;6.90;99.90;;;;;;5040290;28;20603;-70
2020/12/16 10:55:33;;;;;;;22.00;8.53;;;6.40;99.90;;;;;;5040842;28;21109;-70
2020/12/16 10:58:00;;;;;;;22.03;8.07;;;6.40;99.90;;;;;;5042418;28;20208;-70
2020/12/16 11:00:30;;;;;;;22.83;8.60;;;6.40;99.90;;;;;;5039765;28;20567;-70
2020/12/16 11:02:56;;;;;;;17.70;7.53;;;6.40;99.90;;;;;;5036412;28;20411;-71
2020/12/16 11:05:23;;;;;;;18.73;6.97;;;6.40;99.90;;;;;;5005441;28;20597;-70
2020/12/16 11:07:49;;;;;;;16.47;7.57;;;6.50;99.90;;;;;;5013506;28;20207;-70
2020/12/16 11:10:19;;;;;;;16.73;6.90;;;6.50;99.90;;;;;;5006178;28;20252;-70
2020/12/16 11:12:45;;;;;;;15.13;6.53;;;6.50;99.90;;;;;;5006556;28;20509;-69
2020/12/16 11:15:16;;;;;;;16.60;6.97;;;6.50;99.90;;;;;;5008781;28;20241;-70
2020/12/16 11:17:43;;;;;;;16.80;6.53;;;6.50;99.90;;;;;;5043543;28;20281;-70
2020/12/16 11:20:10;;;;;;;14.90;6.80;;;6.60;99.90;;;;;;5043898;28;20208;-70
2020/12/16 11:22:37;;;;;;;13.60;6.70;;;6.60;99.90;;;;;;5055095;28;20244;-70
2020/12/16 11:25:04;;;;;;;18.37;7.27;;;6.60;99.90;;;;;;5032812;28;20502;-70
2020/12/16 11:27:31;;;;;;;15.23;6.47;;;6.60;99.90;;;;;;5055468;28;20209;-70
2020/12/16 11:29:57;;;;;;;18.00;7.13;;;6.60;99.90;;;;;;5049175;28;20251;-70
2020/12/16 11:32:25;;;;;;;16.40;7.87;;;6.60;99.90;;;;;;5025553;28;20216;-70
2020/12/16 11:34:52;;;;;;;13.97;6.80;;;6.60;99.90;;;;;;5078090;28;20208;-71
2020/12/16 11:37:18;;;;;;;14.20;6.40;;;6.60;99.90;;;;;;5071814;28;20249;-70
2020/12/16 11:39:45;;;;;;;16.70;6.83;;;6.60;99.90;;;;;;5063449;28;20231;-70
2020/12/16 11:42:11;;;;;;;14.53;5.87;;;6.60;99.90;;;;;;5046284;28;20271;-70
2020/12/16 11:44:38;;;;;;;16.90;7.00;;;6.60;99.90;;;;;;5017030;28;20330;-70
2020/12/16 11:47:06;;;;;;;12.43;5.93;;;6.60;99.90;;;;;;5001128;28;20556;-70
2020/12/16 11:49:39;;;;;;;17.33;6.60;;;6.60;99.90;;;;;;5001949;28;20209;-70
2020/12/16 11:52:07;;;;;;;20.70;7.47;;;6.70;99.90;;;;;;4978563;28;20220;-70
2020/12/16 11:54:34;;;;;;;20.03;7.30;;;6.70;99.90;;;;;;5004302;28;20320;-70
2020/12/16 11:57:00;;;;;;;18.50;7.43;;;6.70;99.90;;;;;;5004409;28;20223;-70
2020/12/16 11:59:27;;;;;;;16.80;6.93;;;6.70;99.90;;;;;;5001725;28;20283;-71
2020/12/16 12:02:03;;;;;;;19.33;7.23;;;6.80;99.90;;;;;;4972224;28;20235;-70
2020/12/16 12:05:08;;;;;;;;;;;;;;;;;;;;;
2020/12/16 12:07:39;;;;;;;18.53;6.80;;;6.90;99.90;;;;;;4934356;28;20812;-71
2020/12/16 12:10:16;;;;;;;23.07;8.50;;;6.90;99.90;;;;;;4958515;28;20218;-71
2020/12/16 12:12:44;;;;;;;27.00;11.03;;;7.00;99.90;;;;;;4955808;28;20214;-71
2020/12/16 12:15:11;;;;;;;18.00;8.80;;;7.00;99.90;;;;;;4936678;29;20712;-70
2020/12/16 12:17:38;;;;;;;18.67;8.80;;;6.90;99.90;;;;;;4950879;28;20775;-70
2020/12/16 12:20:06;;;;;;;17.37;7.13;;;7.00;99.90;;;;;;4967144;28;20277;-70
2020/12/16 12:22:33;;;;;;;14.37;6.67;;;7.00;99.90;;;;;;4966378;28;20262;-70
2020/12/16 12:24:59;;;;;;;12.40;6.27;;;7.00;99.90;;;;;;4965978;28;20666;-70
2020/12/16 12:27:26;;;;;;;13.97;6.43;;;7.00;99.90;;;;;;4965732;28;20211;-70
2020/12/16 12:29:53;;;;;;;15.43;6.67;;;7.10;99.90;;;;;;4979250;28;20236;-70
2020/12/16 12:32:20;;;;;;;18.30;7.40;;;7.10;99.90;;;;;;4986804;28;20324;-69
2020/12/16 12:34:46;;;;;;;28.00;12.30;;;7.10;99.90;;;;;;5037743;28;20243;-69
2020/12/16 12:37:14;;;;;;;65.53;24.07;;;7.10;99.90;;;;;;5032567;28;20215;-68
2020/12/16 12:39:45;;;;;;;59.73;24.20;;;7.10;99.90;;;;;;5032677;28;20241;-69
2020/12/16 12:42:11;;;;;;;41.30;17.93;;;7.10;99.90;;;;;;5055119;28;20296;-70
2020/12/16 12:44:38;;;;;;;33.93;15.40;;;7.10;99.90;;;;;;5055605;28;20208;-69
2020/12/16 12:47:05;;;;;;;28.63;12.33;;;7.10;99.90;;;;;;5063746;28;20205;-69
2020/12/16 12:49:32;;;;;;;23.87;10.07;;;7.10;99.90;;;;;;5061350;28;20217;-69
2020/12/16 12:51:58;;;;;;;20.10;9.20;;;7.00;99.90;;;;;;5053629;28;20206;-70
2020/12/16 12:54:26;;;;;;;18.33;8.00;;;7.00;99.90;;;;;;5058611;28;20251;-69
2020/12/16 12:56:52;;;;;;;18.17;7.77;;;6.90;99.90;;;;;;5037110;28;20266;-69
2020/12/16 12:59:22;;;;;;;16.13;7.30;;;6.90;99.90;;;;;;5041249;28;20205;-69
2020/12/16 13:01:50;;;;;;;13.73;6.47;;;6.90;99.90;;;;;;4983925;28;20882;-68
2020/12/16 13:04:22;;;;;;;13.60;6.40;;;6.90;99.90;;;;;;5016831;28;20234;-69
2020/12/16 13:06:49;;;;;;;15.93;6.57;;;6.90;99.90;;;;;;4963917;28;20211;-70